createdAt,value
2023-03-26T00:02:10.124Z,78.08
2023-03-26T00:07:04.489Z,78.22
2023-03-26T00:11:23.329Z,79.16
2023-03-26T00:16:29.751Z,79.11
2023-03-26T00:22:57.846Z,80.11
2023-03-26T00:31:33.168Z,82.32
2023-03-26T00:35:55.807Z,82.26
2023-03-26T00:41:02.042Z,82.52
2023-03-26T00:45:43.350Z,81.85
2023-03-26T00:49:43.088Z,86.94
2023-03-26T00:54:07.486Z,95.67
2023-03-26T00:58:11.939Z,94.10
2023-03-26T01:02:17.397Z,95.49
2023-03-26T01:06:27.653Z,97.64
2023-03-26T01:10:27.866Z,97.42
2023-03-26T01:14:42.078Z,97.76
2023-03-26T01:18:46.874Z,97.13
2023-03-26T01:22:54.754Z,96.90
2023-03-26T01:27:18.571Z,96.77
2023-03-26T01:31:29.448Z,95.82
2023-03-26T01:35:48.598Z,95.58
2023-03-26T01:39:56.900Z,96.41
2023-03-26T01:44:07.891Z,96.78
2023-03-26T01:48:27.950Z,97.44
2023-03-26T01:52:27.441Z,96.17
2023-03-26T01:56:40.584Z,96.86
2023-03-26T02:00:44.703Z,97.73
2023-03-26T02:04:52.734Z,99.36
2023-03-26T02:08:59.458Z,100.00
2023-03-26T02:13:00.168Z,100.00
2023-03-26T02:17:12.223Z,100.00
2023-03-26T02:21:28.877Z,100.00
2023-03-26T02:25:28.797Z,100.00
2023-03-26T02:29:30.626Z,100.00
2023-03-26T02:33:59.130Z,100.00
2023-03-26T02:38:02.559Z,100.00
2023-03-26T02:42:03.628Z,100.00
2023-03-26T02:46:09.966Z,100.00
2023-03-26T02:50:20.383Z,100.00
2023-03-26T02:54:22.600Z,100.00
2023-03-26T02:58:32.495Z,100.00
2023-03-26T03:02:37.664Z,100.00
2023-03-26T03:06:47.356Z,100.00
2023-03-26T03:10:46.728Z,100.00
2023-03-26T03:14:58.597Z,100.00
2023-03-26T03:19:03.959Z,100.00
2023-03-26T03:23:21.600Z,100.00
2023-03-26T03:27:42.272Z,100.00
2023-03-26T03:31:45.010Z,100.00
2023-03-26T03:40:44.043Z,100.00
2023-03-26T03:44:58.912Z,100.00
2023-03-26T03:49:02.785Z,100.00
2023-03-26T03:53:22.216Z,100.00
2023-03-26T03:57:36.876Z,100.00
2023-03-26T04:01:43.061Z,100.00
2023-03-26T04:05:43.727Z,100.00
2023-03-26T04:09:43.429Z,100.00
2023-03-26T04:13:44.358Z,100.00
2023-03-26T04:17:46.754Z,100.00
2023-03-26T04:21:47.012Z,100.00
2023-03-26T04:25:54.747Z,100.00
2023-03-26T04:30:09.983Z,100.00
2023-03-26T04:34:19.483Z,100.00
2023-03-26T04:38:22.148Z,100.00
2023-03-26T04:42:22.851Z,100.00
2023-03-26T04:46:28.197Z,100.00
2023-03-26T04:50:35.673Z,100.00
2023-03-26T04:54:35.152Z,100.00
2023-03-26T04:58:35.832Z,100.00
2023-03-26T05:02:37.311Z,100.00
2023-03-26T05:06:39.539Z,100.00
2023-03-26T05:10:40.609Z,100.00
2023-03-26T05:14:41.400Z,100.00
2023-03-26T05:18:44.744Z,100.00
2023-03-26T05:22:48.901Z,100.00
2023-03-26T05:26:48.831Z,100.00
2023-03-26T05:31:00.209Z,100.00
2023-03-26T05:35:03.825Z,100.00
2023-03-26T05:39:05.397Z,100.00
2023-03-26T05:43:10.329Z,100.00
2023-03-26T05:47:12.814Z,100.00
2023-03-26T05:51:20.001Z,100.00
2023-03-26T05:55:25.209Z,100.00
2023-03-26T05:59:31.553Z,100.00
2023-03-26T06:03:33.477Z,100.00
2023-03-26T06:07:43.162Z,100.00
2023-03-26T06:11:50.606Z,100.00
2023-03-26T06:15:54.489Z,100.00
2023-03-26T06:19:54.360Z,100.00
2023-03-26T06:23:57.648Z,100.00
2023-03-26T06:28:08.780Z,100.00
2023-03-26T06:32:18.991Z,100.00
2023-03-26T06:36:26.900Z,100.00
2023-03-26T06:40:27.722Z,100.00
2023-03-26T06:44:33.373Z,100.00
2023-03-26T06:48:33.684Z,100.00
2023-03-26T06:52:40.498Z,97.86
2023-03-26T06:56:49.019Z,95.83
2023-03-26T07:00:50.580Z,93.96
2023-03-26T07:05:04.749Z,92.95
2023-03-26T07:09:18.416Z,92.38
2023-03-26T07:13:21.429Z,93.26
2023-03-26T07:17:23.802Z,91.29
2023-03-26T07:21:25.845Z,89.63
2023-03-26T07:25:26.515Z,89.46
2023-03-26T07:29:36.975Z,88.75
2023-03-26T07:33:42.184Z,88.50
2023-03-26T07:37:46.448Z,86.40
2023-03-26T07:41:51.524Z,84.61
2023-03-26T07:46:12.482Z,83.73
2023-03-26T07:50:19.241Z,80.64
2023-03-26T07:54:35.243Z,80.02
2023-03-26T07:59:06.416Z,80.50
2023-03-26T08:03:14.994Z,79.93
2023-03-26T08:07:24.031Z,78.65
2023-03-26T08:11:35.271Z,76.04
2023-03-26T08:15:40.081Z,76.85
2023-03-26T08:19:46.486Z,73.41
2023-03-26T08:23:54.990Z,77.18
2023-03-26T08:28:04.952Z,75.76
2023-03-26T08:32:06.008Z,75.95
2023-03-26T08:36:05.712Z,76.04
2023-03-26T08:40:09.710Z,75.80
2023-03-26T08:44:40.971Z,73.82
2023-03-26T08:49:01.449Z,72.74
2023-03-26T08:53:28.424Z,72.10
2023-03-26T08:57:49.230Z,72.63
2023-03-26T09:02:19.706Z,74.96
2023-03-26T09:06:32.031Z,74.43
2023-03-26T09:10:57.832Z,73.15
2023-03-26T09:15:12.721Z,71.57
2023-03-26T09:19:33.555Z,69.73
2023-03-26T09:24:03.616Z,70.15
2023-03-26T09:28:20.529Z,70.21
2023-03-26T09:32:39.460Z,66.34
2023-03-26T09:36:46.464Z,62.43
2023-03-26T09:40:53.080Z,60.59
2023-03-26T09:45:18.808Z,61.44
2023-03-26T09:49:36.605Z,59.63
2023-03-26T09:53:54.017Z,58.41
2023-03-26T09:58:04.262Z,60.10
2023-03-26T10:02:15.803Z,60.29
2023-03-26T10:06:22.475Z,58.24
2023-03-26T10:10:29.126Z,58.60
2023-03-26T10:14:32.883Z,57.23
2023-03-26T10:18:41.085Z,56.93
2023-03-26T10:22:47.740Z,57.32
2023-03-26T10:27:11.082Z,57.90
2023-03-26T10:31:44.256Z,56.34
2023-03-26T10:35:49.278Z,57.59
2023-03-26T10:40:05.033Z,55.96
2023-03-26T10:44:34.509Z,56.01
2023-03-26T10:48:53.008Z,55.49
2023-03-26T10:53:05.998Z,55.14
2023-03-26T10:57:13.365Z,54.92
2023-03-26T11:01:21.337Z,54.23
2023-03-26T11:05:34.616Z,52.32
2023-03-26T11:09:45.044Z,49.54
2023-03-26T11:13:57.591Z,48.79
2023-03-26T11:18:06.755Z,47.88
2023-03-26T11:22:11.713Z,42.59
2023-03-26T11:26:25.391Z,44.58
2023-03-26T11:30:36.413Z,46.45
2023-03-26T11:34:41.310Z,43.65
2023-03-26T11:38:43.505Z,45.94
2023-03-26T11:42:45.937Z,44.03
2023-03-26T11:46:48.302Z,44.67
2023-03-26T11:51:07.220Z,44.93
2023-03-26T11:55:13.202Z,45.42
2023-03-26T11:59:17.671Z,44.35
2023-03-26T12:03:18.000Z,43.72
2023-03-26T12:07:24.304Z,46.99
2023-03-26T12:11:26.532Z,46.64
2023-03-26T12:15:26.518Z,45.95
2023-03-26T12:19:34.053Z,46.02
2023-03-26T12:23:40.021Z,46.29
2023-03-26T12:27:41.771Z,46.16
2023-03-26T12:31:52.212Z,48.04
2023-03-26T12:35:54.721Z,46.47
2023-03-26T12:40:17.115Z,45.01
2023-03-26T12:44:49.408Z,43.55
2023-03-26T12:48:55.717Z,42.27
2023-03-26T12:53:02.210Z,42.81
2023-03-26T12:57:11.628Z,44.12
2023-03-26T13:01:20.477Z,43.67
2023-03-26T13:05:42.062Z,41.87
2023-03-26T13:09:57.527Z,43.31
2023-03-26T13:14:25.795Z,40.13
2023-03-26T13:18:34.132Z,41.00
2023-03-26T13:22:37.663Z,40.30
2023-03-26T13:26:48.464Z,39.88
2023-03-26T13:30:54.406Z,39.83
2023-03-26T13:35:18.460Z,40.41
2023-03-26T13:39:37.886Z,38.58
2023-03-26T13:43:46.549Z,38.69
2023-03-26T13:47:51.739Z,39.22
2023-03-26T13:51:58.796Z,39.16
2023-03-26T13:56:04.159Z,38.74
2023-03-26T14:00:28.375Z,37.89
2023-03-26T14:04:34.256Z,38.46
2023-03-26T14:08:44.008Z,39.48
2023-03-26T14:13:28.710Z,38.55
2023-03-26T14:22:51.804Z,37.10
2023-03-26T14:32:27.549Z,37.35
2023-03-26T14:37:27.878Z,37.20
2023-03-26T14:41:51.292Z,36.05
2023-03-26T14:46:17.897Z,35.64
2023-03-26T15:01:26.180Z,36.33
2023-03-26T15:11:32.332Z,35.22
2023-03-26T15:26:52.111Z,37.21
2023-03-26T15:49:11.904Z,36.27
2023-03-26T15:54:22.728Z,36.25
2023-03-26T16:04:41.184Z,36.02
2023-03-26T16:09:30.637Z,36.39
2023-03-26T16:14:29.483Z,36.79
2023-03-26T16:18:47.581Z,37.18
2023-03-26T16:23:47.318Z,37.83
2023-03-26T16:28:25.085Z,38.41
2023-03-26T16:32:43.205Z,38.47
2023-03-26T16:37:33.784Z,38.74
2023-03-26T16:42:44.329Z,39.58
2023-03-26T16:47:34.991Z,40.80
2023-03-26T16:51:48.832Z,40.89
2023-03-26T16:56:33.588Z,40.77
2023-03-26T17:00:51.533Z,41.29
2023-03-26T17:10:44.830Z,41.61
2023-03-26T17:15:08.264Z,42.02
2023-03-26T17:29:34.209Z,42.41
2023-03-26T17:33:39.563Z,42.75
2023-03-26T17:38:08.057Z,43.13
2023-03-26T17:42:35.295Z,42.87
2023-03-26T17:46:56.453Z,42.96
2023-03-26T17:56:29.203Z,42.62
2023-03-26T18:00:34.983Z,42.59
2023-03-26T18:04:47.500Z,42.49
2023-03-26T18:09:05.983Z,42.45
2023-03-26T18:13:51.519Z,42.79
2023-03-26T18:18:26.140Z,43.03
2023-03-26T18:22:49.460Z,42.74
2023-03-26T18:28:20.724Z,42.75
2023-03-26T18:32:44.198Z,42.69
2023-03-26T18:37:00.361Z,42.89
2023-03-26T18:50:47.675Z,41.64
2023-03-26T18:55:33.643Z,41.53
2023-03-26T19:09:13.740Z,40.42
2023-03-26T19:18:44.036Z,40.03
2023-03-26T19:23:00.634Z,39.91
2023-03-26T19:27:19.464Z,39.90
2023-03-26T19:31:46.464Z,39.97
2023-03-26T19:36:14.924Z,40.08
2023-03-26T19:40:40.342Z,40.32
2023-03-26T19:44:45.178Z,40.31
2023-03-26T19:49:01.222Z,40.37
2023-03-26T19:53:55.661Z,40.72
2023-03-26T19:58:22.856Z,40.38
2023-03-26T20:02:34.683Z,40.18
2023-03-26T20:06:43.132Z,40.17
2023-03-26T20:10:45.859Z,40.45
2023-03-26T20:14:48.863Z,40.13
2023-03-26T20:18:57.025Z,40.24
2023-03-26T20:23:09.351Z,40.21
2023-03-26T20:27:21.133Z,40.22
2023-03-26T20:31:54.094Z,40.32
2023-03-26T20:36:09.783Z,40.42
2023-03-26T20:40:18.597Z,40.82
2023-03-26T20:44:40.667Z,41.03
2023-03-26T20:48:51.740Z,41.13
2023-03-26T20:53:06.775Z,41.21
2023-03-26T20:57:38.684Z,41.17
2023-03-26T21:01:38.160Z,40.91
2023-03-26T21:05:39.038Z,41.12
2023-03-26T21:09:42.024Z,41.30
2023-03-26T21:13:43.004Z,41.27
2023-03-26T21:17:42.993Z,41.52
2023-03-26T21:21:54.942Z,41.89
2023-03-26T21:26:06.685Z,42.43
2023-03-26T21:30:14.384Z,43.07
2023-03-26T21:34:17.546Z,43.24
2023-03-26T21:38:34.997Z,43.66
2023-03-26T21:43:05.964Z,44.58
2023-03-26T21:47:47.741Z,45.14
2023-03-26T21:52:05.914Z,45.23
2023-03-26T21:56:48.485Z,45.31
2023-03-26T22:01:02.495Z,45.44
2023-03-26T22:05:11.770Z,45.29
2023-03-26T22:09:30.087Z,45.41
2023-03-26T22:13:41.482Z,45.48
2023-03-26T22:17:45.923Z,45.46
2023-03-26T22:21:45.860Z,45.38
2023-03-26T22:25:48.537Z,45.28
2023-03-26T22:29:48.603Z,45.24
2023-03-26T22:33:51.636Z,48.18
2023-03-26T22:37:53.319Z,48.71
2023-03-26T22:42:02.518Z,49.98
2023-03-26T22:46:02.604Z,49.94
2023-03-26T22:50:05.693Z,50.09
2023-03-26T22:54:05.510Z,50.85
2023-03-26T22:58:05.743Z,51.15
2023-03-26T23:02:06.021Z,51.78
2023-03-26T23:06:09.550Z,53.73
2023-03-26T23:10:12.994Z,55.09
2023-03-26T23:14:19.022Z,55.79
2023-03-26T23:18:18.867Z,56.53
2023-03-26T23:22:23.972Z,57.18
2023-03-26T23:26:23.991Z,56.85
2023-03-26T23:30:24.083Z,57.05
2023-03-26T23:34:33.417Z,56.81
2023-03-26T23:38:43.452Z,56.51
2023-03-26T23:42:44.163Z,54.95
2023-03-26T23:46:48.348Z,55.33
2023-03-26T23:50:50.334Z,56.87
2023-03-26T23:54:55.913Z,57.01
2023-03-26T23:58:58.397Z,58.08
